createdAt,value
2023-04-16T00:00:08.503Z,9.02
2023-04-16T00:02:35.078Z,12.25
2023-04-16T00:05:01.686Z,9.93
2023-04-16T00:07:28.070Z,9.63
2023-04-16T00:09:54.503Z,10.43
2023-04-16T00:12:21.113Z,11.32
2023-04-16T00:14:47.639Z,10.07
2023-04-16T00:17:14.061Z,9.27
2023-04-16T00:19:40.520Z,11.63
2023-04-16T00:22:06.913Z,10.30
2023-04-16T00:24:33.244Z,10.23
2023-04-16T00:26:59.712Z,10.38
2023-04-16T00:29:28.737Z,12.35
2023-04-16T00:31:55.476Z,11.68
2023-04-16T00:34:21.933Z,12.68
2023-04-16T00:36:48.368Z,11.32
2023-04-16T00:39:14.734Z,10.55
2023-04-16T00:41:41.322Z,10.90
2023-04-16T00:44:07.650Z,12.30
2023-04-16T00:46:35.022Z,9.88
2023-04-16T00:49:02.651Z,10.13
2023-04-16T00:51:29.133Z,12.40
2023-04-16T00:53:57.521Z,11.02
2023-04-16T00:56:24.707Z,10.93
2023-04-16T00:58:51.109Z,13.30
2023-04-16T01:01:17.574Z,13.98
2023-04-16T01:03:45.002Z,11.60
2023-04-16T01:06:11.810Z,12.60
2023-04-16T01:08:38.533Z,11.90
2023-04-16T01:11:05.058Z,10.35
2023-04-16T01:13:31.537Z,10.40
2023-04-16T01:15:58.115Z,9.13
2023-04-16T01:18:26.176Z,11.73
2023-04-16T01:20:52.648Z,9.30
2023-04-16T01:23:19.604Z,13.55
2023-04-16T01:25:46.459Z,11.02
2023-04-16T01:28:12.964Z,9.80
2023-04-16T01:30:39.314Z,13.07
2023-04-16T01:33:06.382Z,11.32
2023-04-16T01:35:32.779Z,12.25
2023-04-16T01:37:59.089Z,9.15
2023-04-16T01:40:25.575Z,8.88
2023-04-16T01:42:51.880Z,10.75
2023-04-16T01:45:18.247Z,9.05
2023-04-16T01:47:44.817Z,9.07
2023-04-16T01:50:11.328Z,10.57
2023-04-16T01:52:37.823Z,10.30
2023-04-16T01:55:04.392Z,10.13
2023-04-16T01:57:30.919Z,11.32
2023-04-16T01:59:57.370Z,9.32
2023-04-16T02:02:28.262Z,12.00
2023-04-16T02:04:55.160Z,12.60
2023-04-16T02:07:21.539Z,12.45
2023-04-16T02:09:48.045Z,12.80
2023-04-16T02:12:14.568Z,10.05
2023-04-16T02:14:41.275Z,14.80
2023-04-16T02:17:07.835Z,10.77
2023-04-16T02:19:34.183Z,10.50
2023-04-16T02:22:01.710Z,8.52
2023-04-16T02:24:28.292Z,11.07
2023-04-16T02:26:54.709Z,10.38
2023-04-16T02:29:22.618Z,10.75
2023-04-16T02:31:49.370Z,8.55
2023-04-16T02:34:16.010Z,10.15
2023-04-16T02:36:42.385Z,12.45
2023-04-16T02:39:08.907Z,10.00
2023-04-16T02:41:36.067Z,11.55
2023-04-16T02:44:02.489Z,11.35
2023-04-16T02:46:29.150Z,10.38
2023-04-16T02:48:55.492Z,13.20
2023-04-16T02:51:21.892Z,11.25
2023-04-16T02:53:48.376Z,11.02
2023-04-16T02:56:14.798Z,12.18
2023-04-16T02:58:41.260Z,9.43
2023-04-16T03:01:07.754Z,8.93
2023-04-16T03:03:34.175Z,11.20
2023-04-16T03:06:00.662Z,10.10
2023-04-16T03:08:27.505Z,8.38
2023-04-16T03:10:53.954Z,8.98
2023-04-16T03:13:20.369Z,11.10
2023-04-16T03:15:50.148Z,11.88
2023-04-16T03:18:16.686Z,8.85
2023-04-16T03:20:43.055Z,8.90
2023-04-16T03:23:09.495Z,11.07
2023-04-16T03:25:36.698Z,12.25
2023-04-16T03:28:03.930Z,8.05
2023-04-16T03:30:30.389Z,10.77
2023-04-16T03:32:56.814Z,9.13
2023-04-16T03:35:23.211Z,11.05
2023-04-16T03:37:50.348Z,7.82
2023-04-16T03:40:16.805Z,9.45
2023-04-16T03:42:43.202Z,8.40
2023-04-16T03:45:09.873Z,9.75
2023-04-16T03:47:36.308Z,8.38
2023-04-16T03:50:02.756Z,8.90
2023-04-16T03:52:29.171Z,8.85
2023-04-16T03:54:55.561Z,8.18
2023-04-16T03:57:22.024Z,11.07
2023-04-16T03:59:48.434Z,8.05
2023-04-16T04:02:14.841Z,12.20
2023-04-16T04:04:41.318Z,10.57
2023-04-16T04:07:07.752Z,7.88
2023-04-16T04:09:34.085Z,8.75
2023-04-16T04:12:00.919Z,8.40
2023-04-16T04:14:27.338Z,8.38
2023-04-16T04:16:53.697Z,11.13
2023-04-16T04:19:20.076Z,9.98
2023-04-16T04:21:46.494Z,7.32
2023-04-16T04:24:12.829Z,7.32
2023-04-16T04:26:39.176Z,7.00
2023-04-16T04:29:05.761Z,11.80
2023-04-16T04:31:32.243Z,10.85
2023-04-16T04:33:58.872Z,13.98
2023-04-16T04:36:25.285Z,10.10
2023-04-16T04:38:51.687Z,9.50
2023-04-16T04:41:18.707Z,7.15
2023-04-16T04:43:45.120Z,9.18
2023-04-16T04:46:11.592Z,8.07
2023-04-16T04:48:38.045Z,8.20
2023-04-16T04:51:05.396Z,8.75
2023-04-16T04:53:31.944Z,6.85
2023-04-16T04:56:08.942Z,7.03
2023-04-16T04:58:38.542Z,9.15
2023-04-16T05:01:05.034Z,6.47
2023-04-16T05:03:31.502Z,10.43
2023-04-16T05:06:00.985Z,8.50
2023-04-16T05:10:53.705Z,7.30
2023-04-16T05:13:20.132Z,7.07
2023-04-16T05:15:46.631Z,15.02
2023-04-16T05:18:13.024Z,8.35
2023-04-16T05:20:40.867Z,8.45
2023-04-16T05:23:07.479Z,9.60
2023-04-16T05:25:33.922Z,9.07
2023-04-16T05:28:00.634Z,9.25
2023-04-16T05:30:27.051Z,7.50
2023-04-16T05:32:53.477Z,6.30
2023-04-16T05:35:20.017Z,7.63
2023-04-16T05:37:46.400Z,9.43
2023-04-16T05:40:13.787Z,8.40
2023-04-16T05:42:40.225Z,8.00
2023-04-16T05:45:06.903Z,5.35
2023-04-16T05:47:33.328Z,7.13
2023-04-16T05:49:59.717Z,7.93
2023-04-16T05:52:26.093Z,7.88
2023-04-16T05:54:52.530Z,7.25
2023-04-16T05:57:18.948Z,7.07
2023-04-16T05:59:45.589Z,7.63
2023-04-16T06:02:12.248Z,6.95
2023-04-16T06:04:38.836Z,6.53
2023-04-16T06:07:05.408Z,6.68
2023-04-16T06:09:31.784Z,9.50
2023-04-16T06:11:58.278Z,6.95
2023-04-16T06:14:24.672Z,7.50
2023-04-16T06:16:51.153Z,7.88
2023-04-16T06:19:17.955Z,6.85
2023-04-16T06:21:44.436Z,8.68
2023-04-16T06:24:10.941Z,7.20
2023-04-16T06:26:37.414Z,8.02
2023-04-16T06:29:03.819Z,8.32
2023-04-16T06:31:30.721Z,8.15
2023-04-16T06:33:57.190Z,6.25
2023-04-16T06:36:23.613Z,7.80
2023-04-16T06:38:49.971Z,6.85
2023-04-16T06:41:16.380Z,8.98
2023-04-16T06:43:42.793Z,6.95
2023-04-16T06:46:09.171Z,6.30
2023-04-16T06:48:35.711Z,7.90
2023-04-16T06:51:02.196Z,8.48
2023-04-16T06:53:28.643Z,6.60
2023-04-16T06:55:55.094Z,9.55
2023-04-16T06:58:22.423Z,7.35
2023-04-16T07:00:48.869Z,10.05
2023-04-16T07:03:15.640Z,8.05
2023-04-16T07:05:42.173Z,7.63
2023-04-16T07:08:08.557Z,6.60
2023-04-16T07:10:35.027Z,6.80
2023-04-16T07:13:01.713Z,7.28
2023-04-16T07:15:28.925Z,6.80
2023-04-16T07:17:55.424Z,6.88
2023-04-16T07:20:21.925Z,6.60
2023-04-16T07:22:48.341Z,12.18
2023-04-16T07:25:14.907Z,10.40
2023-04-16T07:27:41.346Z,7.32
2023-04-16T07:30:08.164Z,8.10
2023-04-16T07:32:34.847Z,12.57
2023-04-16T07:35:01.276Z,5.82
2023-04-16T07:37:27.702Z,7.57
2023-04-16T07:39:56.863Z,7.88
2023-04-16T07:42:23.707Z,7.57
2023-04-16T07:44:50.032Z,8.98
2023-04-16T07:47:16.437Z,5.72
2023-04-16T07:49:42.943Z,6.55
2023-04-16T07:52:09.279Z,7.50
2023-04-16T07:54:35.878Z,7.20
2023-04-16T07:57:02.328Z,7.35
2023-04-16T07:59:29.015Z,10.88
2023-04-16T08:01:55.922Z,7.45
2023-04-16T08:04:26.367Z,8.98
2023-04-16T08:06:53.340Z,9.68
2023-04-16T08:09:20.653Z,6.75
2023-04-16T08:11:49.232Z,7.72
2023-04-16T08:14:18.765Z,10.15
2023-04-16T08:16:45.229Z,6.85
2023-04-16T08:19:11.902Z,7.63
2023-04-16T08:21:38.508Z,6.78
2023-04-16T08:24:04.994Z,6.57
2023-04-16T08:26:31.427Z,9.20
2023-04-16T08:28:57.890Z,10.13
2023-04-16T08:31:24.434Z,6.95
2023-04-16T08:33:50.905Z,7.30
2023-04-16T08:36:17.264Z,6.55
2023-04-16T08:38:43.698Z,8.50
2023-04-16T08:41:12.446Z,6.72
2023-04-16T08:43:40.614Z,8.52
2023-04-16T08:46:07.746Z,6.90
2023-04-16T08:48:34.932Z,6.75
2023-04-16T08:51:02.106Z,13.93
2023-04-16T08:53:49.401Z,9.77
2023-04-16T08:56:17.011Z,7.85
2023-04-16T08:58:43.806Z,8.27
2023-04-16T09:01:11.514Z,8.30
2023-04-16T09:03:38.379Z,9.45
2023-04-16T09:06:05.572Z,7.78
2023-04-16T09:08:39.987Z,8.50
2023-04-16T09:11:07.507Z,7.00
2023-04-16T09:13:33.978Z,7.50
2023-04-16T09:16:00.522Z,7.68
2023-04-16T09:18:28.152Z,9.05
2023-04-16T09:20:56.427Z,7.05
2023-04-16T09:23:23.075Z,8.55
2023-04-16T09:25:49.521Z,8.10
2023-04-16T09:28:39.188Z,7.50
2023-04-16T09:31:09.293Z,6.82
2023-04-16T09:33:35.622Z,7.15
2023-04-16T09:36:02.357Z,7.97
2023-04-16T09:38:45.758Z,9.38
2023-04-16T09:41:12.469Z,8.90
2023-04-16T09:43:39.240Z,7.47
2023-04-16T09:46:08.275Z,7.80
2023-04-16T09:51:01.765Z,8.00
2023-04-16T09:53:29.232Z,7.72
2023-04-16T09:55:58.631Z,8.38
2023-04-16T10:01:03.560Z,8.15
2023-04-16T10:03:34.412Z,10.30
2023-04-16T10:06:21.420Z,7.10
2023-04-16T10:08:49.697Z,6.55
2023-04-16T10:11:17.224Z,7.25
2023-04-16T10:13:43.818Z,6.88
2023-04-16T10:16:10.576Z,8.32
2023-04-16T10:18:38.254Z,5.85
2023-04-16T10:21:05.531Z,10.75
2023-04-16T10:23:32.721Z,9.35
2023-04-16T10:25:59.954Z,10.38
2023-04-16T10:28:27.163Z,8.23
2023-04-16T10:30:54.973Z,10.82
2023-04-16T10:33:22.112Z,6.78
2023-04-16T10:36:00.960Z,12.18
2023-04-16T10:38:33.379Z,7.22
2023-04-16T10:41:02.097Z,7.30
2023-04-16T10:43:28.912Z,10.30
2023-04-16T10:45:55.707Z,9.52
2023-04-16T10:48:24.151Z,9.85
2023-04-16T10:50:55.989Z,10.20
2023-04-16T10:53:26.881Z,5.80
2023-04-16T10:55:57.452Z,9.27
2023-04-16T10:58:27.854Z,7.55
2023-04-16T11:00:54.179Z,7.65
2023-04-16T11:03:20.815Z,7.90
2023-04-16T11:05:47.424Z,7.95
2023-04-16T11:08:14.306Z,6.88
2023-04-16T11:10:40.828Z,7.10
2023-04-16T11:13:07.621Z,9.75
2023-04-16T11:15:34.922Z,11.07
2023-04-16T11:18:01.405Z,8.10
2023-04-16T11:20:28.418Z,8.70
2023-04-16T11:22:55.654Z,7.53
2023-04-16T11:25:25.030Z,8.55
2023-04-16T11:27:52.538Z,9.52
2023-04-16T11:30:19.579Z,8.90
2023-04-16T11:32:46.066Z,9.48
2023-04-16T11:35:16.665Z,7.80
2023-04-16T11:37:43.411Z,6.85
2023-04-16T11:40:10.271Z,7.47
2023-04-16T11:42:37.573Z,9.13
2023-04-16T11:45:04.795Z,8.95
2023-04-16T11:47:31.712Z,6.90
2023-04-16T11:49:58.575Z,9.05
2023-04-16T11:52:28.594Z,8.85
2023-04-16T11:54:55.150Z,7.82
2023-04-16T11:57:28.560Z,7.97
2023-04-16T12:00:02.068Z,7.05
2023-04-16T12:02:48.824Z,10.25
2023-04-16T12:05:34.013Z,8.07
2023-04-16T12:08:04.833Z,7.78
2023-04-16T12:10:34.950Z,9.38
2023-04-16T12:13:15.179Z,7.68
2023-04-16T12:15:47.980Z,10.65
2023-04-16T12:18:16.233Z,5.85
2023-04-16T12:20:43.725Z,7.38
2023-04-16T12:23:11.326Z,7.05
2023-04-16T12:25:37.859Z,6.70
2023-04-16T12:28:04.583Z,6.97
2023-04-16T12:30:31.288Z,6.57
2023-04-16T12:33:13.949Z,7.95
2023-04-16T12:35:42.024Z,7.20
2023-04-16T12:38:08.412Z,15.02
2023-04-16T12:40:35.932Z,7.72
2023-04-16T12:43:02.791Z,7.65
2023-04-16T12:45:29.177Z,8.77
2023-04-16T12:47:56.040Z,8.20
2023-04-16T12:50:22.664Z,8.15
2023-04-16T12:52:49.052Z,6.85
2023-04-16T12:55:15.689Z,7.15
2023-04-16T12:57:42.684Z,6.18
2023-04-16T13:00:10.681Z,5.32
2023-04-16T13:02:37.543Z,6.00
2023-04-16T13:05:05.268Z,8.02
2023-04-16T13:07:32.787Z,5.30
2023-04-16T13:09:59.495Z,6.38
2023-04-16T13:12:27.124Z,6.63
2023-04-16T13:14:53.893Z,6.03
2023-04-16T13:17:20.518Z,6.60
2023-04-16T13:19:46.915Z,6.65
2023-04-16T13:22:13.325Z,5.63
2023-04-16T13:24:39.777Z,7.60
2023-04-16T13:27:08.344Z,9.65
2023-04-16T13:29:36.746Z,6.30
2023-04-16T13:32:03.562Z,7.90
2023-04-16T13:34:30.073Z,9.07
2023-04-16T13:36:56.461Z,6.70
2023-04-16T13:39:22.989Z,10.00
2023-04-16T13:41:50.416Z,6.82
2023-04-16T13:44:16.875Z,8.23
2023-04-16T13:46:47.648Z,6.35
2023-04-16T13:49:14.492Z,4.88
2023-04-16T13:51:43.846Z,8.25
2023-04-16T13:54:10.407Z,6.55
2023-04-16T13:56:36.932Z,6.43
2023-04-16T13:59:03.372Z,8.18
2023-04-16T14:01:30.023Z,5.53
2023-04-16T14:03:56.595Z,4.95
2023-04-16T14:06:23.006Z,7.72
2023-04-16T14:08:49.416Z,6.00
2023-04-16T14:11:15.827Z,6.45
2023-04-16T14:13:42.351Z,6.55
2023-04-16T14:16:08.922Z,8.88
2023-04-16T14:18:35.954Z,10.07
2023-04-16T14:21:02.427Z,7.70
2023-04-16T14:23:28.914Z,6.10
2023-04-16T14:25:56.125Z,6.57
2023-04-16T14:28:22.471Z,5.95
2023-04-16T14:30:48.915Z,7.35
2023-04-16T14:33:15.577Z,4.63
2023-04-16T14:35:42.008Z,5.57
2023-04-16T14:38:08.563Z,6.93
2023-04-16T14:40:34.985Z,10.00
2023-04-16T14:43:01.314Z,6.03
2023-04-16T14:45:30.035Z,4.93
2023-04-16T14:47:57.104Z,6.07
2023-04-16T14:50:23.609Z,6.65
2023-04-16T14:52:50.583Z,7.85
2023-04-16T14:55:17.054Z,6.07
2023-04-16T14:57:43.556Z,6.40
2023-04-16T15:00:10.933Z,5.22
2023-04-16T15:02:37.918Z,5.32
2023-04-16T15:05:04.574Z,6.45
2023-04-16T15:07:31.625Z,5.03
2023-04-16T15:09:58.105Z,6.85
2023-04-16T15:12:24.886Z,7.45
2023-04-16T15:14:51.280Z,7.25
2023-04-16T15:17:17.642Z,6.18
2023-04-16T15:19:44.032Z,7.32
2023-04-16T15:22:10.435Z,6.50
2023-04-16T15:24:36.890Z,8.27
2023-04-16T15:27:03.685Z,7.90
2023-04-16T15:29:30.103Z,9.68
2023-04-16T15:31:56.506Z,8.77
2023-04-16T15:34:22.918Z,6.82
2023-04-16T15:36:49.247Z,7.07
2023-04-16T15:39:15.873Z,8.90
2023-04-16T15:41:57.589Z,7.18
2023-04-16T15:44:26.854Z,8.52
2023-04-16T15:46:53.201Z,7.47
2023-04-16T15:49:19.594Z,6.22
2023-04-16T15:51:46.271Z,8.85
2023-04-16T15:54:12.653Z,8.65
2023-04-16T15:56:39.575Z,8.02
2023-04-16T15:59:06.002Z,8.80
2023-04-16T16:01:32.390Z,10.52
2023-04-16T16:03:58.944Z,6.78
2023-04-16T16:06:26.392Z,7.10
2023-04-16T16:08:54.218Z,7.15
2023-04-16T16:11:21.166Z,8.07
2023-04-16T16:13:47.635Z,9.60
2023-04-16T16:16:21.681Z,9.68
2023-04-16T16:18:48.372Z,7.80
2023-04-16T16:21:14.879Z,7.53
2023-04-16T16:23:41.388Z,7.10
2023-04-16T16:26:07.854Z,9.30
2023-04-16T16:28:37.610Z,5.85
2023-04-16T16:31:07.354Z,7.35
2023-04-16T16:33:33.777Z,7.50
2023-04-16T16:36:00.274Z,7.63
2023-04-16T16:38:27.126Z,7.38
2023-04-16T16:40:53.624Z,10.07
2023-04-16T16:43:20.346Z,9.60
2023-04-16T16:45:47.224Z,8.88
2023-04-16T16:48:13.717Z,8.10
2023-04-16T16:50:40.178Z,8.48
2023-04-16T16:53:06.818Z,8.20
2023-04-16T16:55:33.266Z,7.78
2023-04-16T16:57:59.708Z,10.38
2023-04-16T17:00:26.181Z,7.25
2023-04-16T17:02:52.962Z,6.85
2023-04-16T17:05:19.923Z,10.07
2023-04-16T17:07:46.438Z,11.32
2023-04-16T17:10:15.911Z,9.10
2023-04-16T17:12:42.605Z,7.55
2023-04-16T17:15:09.377Z,9.93
2023-04-16T17:17:35.989Z,8.10
2023-04-16T17:20:08.132Z,8.77
2023-04-16T17:22:34.488Z,8.30
2023-04-16T17:25:01.049Z,9.25
2023-04-16T17:27:29.376Z,10.05
2023-04-16T17:30:00.165Z,10.45
2023-04-16T17:32:27.039Z,9.85
2023-04-16T17:34:57.045Z,10.63
2023-04-16T17:37:23.594Z,11.52
2023-04-16T17:39:50.235Z,7.35
2023-04-16T17:42:16.857Z,9.75
2023-04-16T17:44:43.308Z,9.18
2023-04-16T17:47:10.065Z,8.80
2023-04-16T17:49:36.841Z,6.78
2023-04-16T17:52:03.311Z,5.25
2023-04-16T17:54:29.955Z,8.23
2023-04-16T17:56:57.617Z,9.32
2023-04-16T17:59:24.047Z,5.90
2023-04-16T18:01:50.802Z,6.10
2023-04-16T18:04:18.156Z,7.10
2023-04-16T18:06:48.051Z,7.18
2023-04-16T18:09:14.551Z,6.88
2023-04-16T18:11:41.657Z,10.63
2023-04-16T18:14:10.221Z,6.53
2023-04-16T18:16:36.921Z,11.10
2023-04-16T18:19:06.602Z,7.40
2023-04-16T18:21:35.496Z,6.60
2023-04-16T18:24:05.453Z,6.63
2023-04-16T18:26:35.679Z,6.97
2023-04-16T18:29:03.088Z,7.93
2023-04-16T18:31:29.635Z,9.05
2023-04-16T18:33:58.005Z,5.75
2023-04-16T18:36:26.062Z,6.07
2023-04-16T18:39:15.641Z,7.70
2023-04-16T18:41:40.952Z,5.50
2023-04-16T18:44:07.811Z,6.45
2023-04-16T18:46:34.252Z,5.38
2023-04-16T18:49:03.887Z,6.57
2023-04-16T18:51:30.325Z,6.35
2023-04-16T18:53:56.853Z,7.25
2023-04-16T18:56:23.301Z,8.07
2023-04-16T18:58:52.448Z,6.88
2023-04-16T19:01:18.901Z,5.90
2023-04-16T19:03:45.588Z,6.82
2023-04-16T19:06:12.095Z,7.82
2023-04-16T19:08:38.428Z,6.95
2023-04-16T19:11:04.905Z,6.05
2023-04-16T19:13:32.332Z,7.45
2023-04-16T19:15:59.955Z,6.80
2023-04-16T19:18:26.676Z,6.50
2023-04-16T19:20:58.596Z,8.35
2023-04-16T19:23:24.950Z,7.28
2023-04-16T19:25:51.465Z,8.27
2023-04-16T19:28:18.555Z,8.43
2023-04-16T19:30:46.713Z,6.13
2023-04-16T19:33:13.319Z,6.53
2023-04-16T19:35:42.135Z,6.53
2023-04-16T19:38:10.290Z,6.15
2023-04-16T19:40:37.328Z,6.53
2023-04-16T19:43:03.982Z,6.50
2023-04-16T19:45:31.195Z,6.10
2023-04-16T19:47:58.083Z,8.00
2023-04-16T19:50:24.610Z,8.50
2023-04-16T19:52:51.020Z,7.55
2023-04-16T19:55:17.466Z,9.60
2023-04-16T19:57:43.889Z,8.05
2023-04-16T20:00:12.903Z,7.90
2023-04-16T20:02:39.643Z,8.00
2023-04-16T20:05:06.389Z,7.25
2023-04-16T20:07:32.794Z,6.95
2023-04-16T20:10:03.182Z,6.82
2023-04-16T20:12:29.748Z,6.88
2023-04-16T20:14:56.172Z,7.53
2023-04-16T20:17:22.901Z,7.90
2023-04-16T20:19:49.639Z,6.30
2023-04-16T20:22:18.221Z,7.15
2023-04-16T20:24:47.779Z,7.77
2023-04-16T20:27:15.449Z,9.90
2023-04-16T20:29:42.072Z,8.85
2023-04-16T20:32:08.472Z,10.32
2023-04-16T20:34:34.956Z,10.27
2023-04-16T20:37:01.374Z,11.55
2023-04-16T20:39:27.878Z,12.93
2023-04-16T20:41:56.780Z,11.55
2023-04-16T20:44:26.497Z,10.38
2023-04-16T20:46:55.039Z,10.05
2023-04-16T20:49:21.467Z,11.40
2023-04-16T20:51:47.881Z,12.23
2023-04-16T20:54:14.298Z,12.25
2023-04-16T20:56:40.883Z,11.02
2023-04-16T20:59:07.330Z,11.98
2023-04-16T21:01:33.766Z,12.23
2023-04-16T21:04:00.324Z,14.85
2023-04-16T21:06:26.974Z,14.43
2023-04-16T21:08:53.384Z,12.48
2023-04-16T21:11:19.888Z,13.70
2023-04-16T21:13:46.378Z,11.20
2023-04-16T21:16:12.807Z,11.85
2023-04-16T21:18:39.241Z,9.98
2023-04-16T21:21:06.037Z,9.82
2023-04-16T21:23:32.438Z,11.15
2023-04-16T21:25:58.859Z,13.13
2023-04-16T21:28:25.160Z,11.70
2023-04-16T21:30:52.222Z,10.65
2023-04-16T21:33:18.670Z,12.45
2023-04-16T21:35:45.082Z,12.57
2023-04-16T21:38:11.469Z,12.60
2023-04-16T21:40:38.467Z,11.82
2023-04-16T21:43:04.822Z,12.95
2023-04-16T21:45:31.336Z,15.65
2023-04-16T21:47:57.862Z,12.40
2023-04-16T21:50:24.375Z,12.52
2023-04-16T21:52:52.472Z,11.93
2023-04-16T21:55:18.859Z,9.95
2023-04-16T21:57:45.384Z,11.73
2023-04-16T22:00:14.995Z,14.27
2023-04-16T22:02:42.025Z,14.82
2023-04-16T22:05:09.208Z,11.60
2023-04-16T22:07:36.726Z,12.30
2023-04-16T22:10:04.029Z,11.48
2023-04-16T22:12:31.009Z,10.15
2023-04-16T22:15:02.339Z,12.02
2023-04-16T22:17:29.424Z,14.50
2023-04-16T22:19:57.199Z,11.80
2023-04-16T22:22:23.659Z,11.75
2023-04-16T22:24:50.152Z,12.93
2023-04-16T22:27:16.561Z,13.93
2023-04-16T22:29:42.894Z,10.70
2023-04-16T22:32:09.406Z,12.68
2023-04-16T22:34:35.849Z,12.63
2023-04-16T22:37:03.083Z,13.90
2023-04-16T22:39:29.966Z,12.13
2023-04-16T22:41:56.349Z,14.93
2023-04-16T22:44:22.679Z,12.50
2023-04-16T22:46:49.113Z,15.73
2023-04-16T22:49:15.541Z,12.93
2023-04-16T22:51:42.589Z,14.45
2023-04-16T22:54:13.273Z,14.30
2023-04-16T22:56:40.737Z,13.55
2023-04-16T22:59:07.284Z,13.13
2023-04-16T23:01:34.334Z,14.25
2023-04-16T23:04:01.003Z,13.20
2023-04-16T23:06:27.527Z,12.68
2023-04-16T23:08:54.091Z,11.93
2023-04-16T23:11:20.428Z,11.00
2023-04-16T23:13:46.864Z,11.63
2023-04-16T23:16:13.329Z,14.82
2023-04-16T23:18:39.720Z,11.50
2023-04-16T23:21:06.120Z,12.95
2023-04-16T23:23:32.663Z,12.52
2023-04-16T23:25:59.441Z,11.90
2023-04-16T23:28:25.851Z,11.45
2023-04-16T23:30:53.106Z,13.00
2023-04-16T23:33:19.578Z,13.90
2023-04-16T23:35:46.561Z,12.90
2023-04-16T23:38:12.982Z,10.32
2023-04-16T23:40:39.387Z,12.63
2023-04-16T23:43:05.782Z,9.95
2023-04-16T23:45:32.231Z,12.23
2023-04-16T23:47:58.676Z,10.52
2023-04-16T23:50:25.084Z,11.23
2023-04-16T23:52:51.530Z,13.20
2023-04-16T23:55:17.940Z,9.70
2023-04-16T23:57:44.307Z,13.32
